Time;durP1;ratioP1;P1;durP2;ratioP2;P2;SDS_P1;SDS_P2;PMS_P1;PMS_P2;Temp;Humidity;BMP_temperature;BMP_pressure;BME280_temperature;BME280_humidity;BME280_pressure;Samples;Min_cycle;Max_cycle;Signal;HPM_P1;HPM_P2
2022/09/08 00:02:18;;;;;;;19.55;13.95;;;;;;;;;;5132044;27;20384;-74
2022/09/08 00:04:44;;;;;;;21.02;13.90;;;;;;;;;;5150224;27;20439;-75
2022/09/08 00:07:10;;;;;;;20.80;13.43;;;;;;;;;;5147254;27;20237;-75
2022/09/08 00:09:36;;;;;;;20.50;14.32;;;;;;;;;;5131774;27;20118;-74
2022/09/08 00:12:03;;;;;;;21.98;14.25;;;;;;;;;;5147352;27;20043;-74
2022/09/08 00:14:30;;;;;;;20.98;15.05;;;;;;;;;;5148548;27;20069;-74
2022/09/08 00:16:56;;;;;;;21.08;15.10;;;;;;;;;;5146258;27;20046;-75
2022/09/08 00:19:22;;;;;;;24.63;15.77;;;;;;;;;;5149257;27;20034;-78
2022/09/08 00:21:49;;;;;;;23.27;17.17;;;;;;;;;;5128016;27;20038;-75
2022/09/08 00:24:15;;;;;;;28.20;17.60;;;;;;;;;;5149051;27;20043;-73
2022/09/08 00:26:41;;;;;;;26.67;19.25;;;;;;;;;;5145134;27;20142;-74
2022/09/08 00:29:07;;;;;;;25.92;17.48;;;;;;;;;;5145957;27;20445;-74
2022/09/08 00:31:37;;;;;;;25.15;17.95;;;;;;;;;;5146932;27;20069;-75
2022/09/08 00:34:03;;;;;;;24.77;18.13;;;;;;;;;;5144480;27;20046;-75
2022/09/08 00:36:31;;;;;;;29.80;18.98;;;;;;;;;;5143674;27;20110;-75
2022/09/08 00:39:00;;;;;;;25.98;19.65;;;;;;;;;;5129366;27;20047;-75
2022/09/08 00:41:27;;;;;;;24.45;18.55;;;;;;;;;;5147680;27;20054;-74
2022/09/08 00:44:03;;;;;;;27.90;20.30;;;;;;;;;;5129325;27;20058;-74
2022/09/08 00:46:29;;;;;;;27.23;18.92;;;;;;;;;;5128230;27;20154;-74
2022/09/08 00:49:12;;;;;;;29.83;20.55;;;;;;;;;;5147500;27;20050;-76
2022/09/08 00:51:41;;;;;;;27.23;21.08;;;;;;;;;;5137778;27;20162;-74
2022/09/08 00:54:07;;;;;;;26.13;19.88;;;;;;;;;;5148189;27;20046;-74
2022/09/08 00:56:34;;;;;;;29.25;20.45;;;;;;;;;;5127395;27;21171;-74
2022/09/08 00:59:00;;;;;;;;;;;;;;;;;;5128846;27;20394;-74
2022/09/08 01:01:26;;;;;;;30.00;21.10;;;;;;;;;;5146839;27;20379;-74
2022/09/08 01:03:52;;;;;;;;;;;;;;;;;;5107606;27;20043;-74
2022/09/08 01:12:43;;;;;;;28.45;21.50;;;;;;;;;;5129067;27;19919;-74
2022/09/08 01:12:45;;;;;;;29.58;21.60;;;;;;;;;;5146138;27;20058;-76
2022/09/08 01:14:53;;;;;;;31.33;24.20;;;;;;;;;;5131065;27;20047;-74
2022/09/08 01:17:24;;;;;;;31.38;24.77;;;;;;;;;;5125573;27;20034;-74
2022/09/08 01:19:50;;;;;;;35.58;25.50;;;;;;;;;;5144940;27;20207;-74
2022/09/08 01:22:26;;;;;;;30.45;24.65;;;;;;;;;;5148036;27;20046;-75
2022/09/08 01:25:16;;;;;;;32.40;25.88;;;;;;;;;;5144925;27;20047;-75
2022/09/08 01:27:45;;;;;;;35.08;26.23;;;;;;;;;;5126911;27;20054;-74
2022/09/08 01:30:12;;;;;;;33.72;26.33;;;;;;;;;;5147799;27;20208;-74
2022/09/08 01:32:39;;;;;;;36.00;28.40;;;;;;;;;;5126246;27;20051;-74
2022/09/08 01:35:08;;;;;;;37.05;27.80;;;;;;;;;;5127197;27;20677;-75
2022/09/08 01:37:35;;;;;;;40.80;30.25;;;;;;;;;;5147699;27;20042;-73
2022/09/08 01:40:01;;;;;;;;;;;;;;;;;;5125710;27;20398;-76
2022/09/08 01:42:27;;;;;;;37.73;30.30;;;;;;;;;;5130041;27;19979;-73
2022/09/08 01:44:53;;;;;;;41.50;32.05;;;;;;;;;;5143134;27;20298;-74
2022/09/08 01:47:19;;;;;;;41.55;32.17;;;;;;;;;;5145570;27;20054;-74
2022/09/08 01:49:45;;;;;;;49.63;31.88;;;;;;;;;;5122663;27;20046;-74
2022/09/08 01:52:12;;;;;;;43.10;32.85;;;;;;;;;;5149719;27;20069;-75
2022/09/08 01:54:38;;;;;;;44.17;33.45;;;;;;;;;;5140599;27;20435;-74
2022/09/08 01:57:04;;;;;;;44.38;34.58;;;;;;;;;;5148376;27;20081;-74
2022/09/08 01:59:30;;;;;;;;;;;;;;;;;;5127941;27;20051;-73
2022/09/08 02:01:56;;;;;;;42.42;33.90;;;;;;;;;;5148672;27;19919;-74
2022/09/08 02:04:22;;;;;;;46.35;34.95;;;;;;;;;;5125929;27;20126;-74
2022/09/08 02:06:48;;;;;;;42.83;33.72;;;;;;;;;;5149931;27;20042;-73
2022/09/08 02:09:14;;;;;;;;;;;;;;;;;;5109172;27;20414;-74
2022/09/08 02:11:40;;;;;;;43.58;35.08;;;;;;;;;;5135191;27;19919;-73
2022/09/08 02:14:06;;;;;;;44.67;35.45;;;;;;;;;;5148976;27;20061;-75
2022/09/08 02:16:34;;;;;;;44.70;36.03;;;;;;;;;;5150803;27;20138;-72
2022/09/08 02:19:00;;;;;;;46.95;36.42;;;;;;;;;;5152666;27;20074;-72
2022/09/08 02:21:27;;;;;;;45.97;37.05;;;;;;;;;;5149856;27;20123;-72
2022/09/08 02:23:53;;;;;;;47.95;37.83;;;;;;;;;;5147031;27;20133;-74
2022/09/08 02:26:24;;;;;;;47.45;37.22;;;;;;;;;;5131277;27;20094;-74
2022/09/08 02:28:53;;;;;;;49.78;37.80;;;;;;;;;;5133814;27;20058;-73
2022/09/08 02:31:23;;;;;;;49.33;39.63;;;;;;;;;;5149470;27;20047;-71
2022/09/08 02:33:49;;;;;;;48.55;38.33;;;;;;;;;;5152362;27;20054;-73
2022/09/08 02:36:15;;;;;;;47.03;37.00;;;;;;;;;;5129367;27;20047;-71
2022/09/08 02:38:41;;;;;;;;;;;;;;;;;;5150444;27;20087;-74
2022/09/08 02:41:07;;;;;;;51.60;38.65;;;;;;;;;;5146148;27;19918;-72
2022/09/08 02:43:34;;;;;;;49.72;38.05;;;;;;;;;;5132748;27;20077;-72
2022/09/08 02:46:07;;;;;;;49.67;38.45;;;;;;;;;;5143961;27;20134;-73
2022/09/08 02:48:34;;;;;;;50.33;39.90;;;;;;;;;;5149991;27;20374;-76
2022/09/08 02:51:00;;;;;;;50.10;39.45;;;;;;;;;;5128063;27;20065;-72
2022/09/08 02:53:27;;;;;;;49.30;38.90;;;;;;;;;;5129767;27;20125;-73
2022/09/08 02:55:54;;;;;;;50.50;39.83;;;;;;;;;;5145847;27;20067;-72
2022/09/08 02:58:20;;;;;;;53.00;41.55;;;;;;;;;;5151036;27;20085;-72
2022/09/08 03:00:46;;;;;;;49.35;40.95;;;;;;;;;;5148655;27;20038;-71
2022/09/08 03:03:12;;;;;;;50.22;40.78;;;;;;;;;;5150114;27;20046;-76
2022/09/08 03:05:38;;;;;;;;;;;;;;;;;;5148151;27;20107;-78
2022/09/08 03:08:04;;;;;;;49.38;40.28;;;;;;;;;;5148937;27;20275;-72
2022/09/08 03:10:31;;;;;;;53.88;42.60;;;;;;;;;;5149686;27;20451;-73
2022/09/08 03:12:58;;;;;;;55.13;43.00;;;;;;;;;;5149671;27;20051;-73
2022/09/08 03:15:25;;;;;;;54.35;41.53;;;;;;;;;;5149896;27;20123;-73
2022/09/08 03:17:52;;;;;;;53.90;42.53;;;;;;;;;;5135889;27;20348;-72
2022/09/08 03:20:19;;;;;;;54.97;42.88;;;;;;;;;;5137501;27;20091;-73
2022/09/08 03:22:45;;;;;;;53.47;42.42;;;;;;;;;;5148780;27;20069;-73
2022/09/08 03:25:12;;;;;;;53.08;41.75;;;;;;;;;;5123070;27;20050;-73
2022/09/08 03:27:38;;;;;;;54.85;42.63;;;;;;;;;;5148922;27;20128;-73
2022/09/08 03:30:05;;;;;;;53.88;42.28;;;;;;;;;;5149357;27;20112;-74
2022/09/08 03:32:33;;;;;;;54.75;43.75;;;;;;;;;;5127514;27;20054;-76
2022/09/08 03:34:59;;;;;;;56.33;44.17;;;;;;;;;;5132028;27;20099;-71
2022/09/08 03:37:25;;;;;;;53.58;43.95;;;;;;;;;;5128041;27;20038;-72
2022/09/08 03:39:51;;;;;;;56.00;45.00;;;;;;;;;;5147285;27;20051;-73
2022/09/08 03:42:17;;;;;;;57.35;45.45;;;;;;;;;;5145849;27;20058;-72
2022/09/08 03:44:43;;;;;;;55.45;44.78;;;;;;;;;;5149745;27;20087;-73
2022/09/08 03:47:09;;;;;;;;;;;;;;;;;;5147723;27;20058;-72
2022/09/08 03:49:36;;;;;;;57.83;44.50;;;;;;;;;;5149104;27;20021;-72
2022/09/08 03:52:02;;;;;;;;;;;;;;;;;;5131508;27;20062;-72
2022/09/08 03:57:13;;;;;;;56.88;45.92;;;;;;;;;;5149017;27;20066;-72
2022/09/08 03:59:39;;;;;;;;;;;;;;;;;;5146811;27;21791;-72
2022/09/08 04:02:05;;;;;;;63.28;48.33;;;;;;;;;;5148201;27;20006;-73
2022/09/08 04:04:31;;;;;;;61.25;47.92;;;;;;;;;;5129315;27;20371;-74
2022/09/08 04:06:57;;;;;;;;;;;;;;;;;;5147711;27;20042;-71
2022/09/08 04:09:23;;;;;;;61.55;47.50;;;;;;;;;;5147797;27;19938;-74
2022/09/08 04:11:50;;;;;;;62.90;49.97;;;;;;;;;;5146300;27;20482;-71
2022/09/08 04:14:16;;;;;;;62.72;49.10;;;;;;;;;;5147988;27;20038;-72
2022/09/08 04:16:42;;;;;;;62.30;48.60;;;;;;;;;;5148832;27;20066;-73
2022/09/08 04:19:09;;;;;;;68.32;50.25;;;;;;;;;;5144381;27;20046;-74
2022/09/08 04:21:35;;;;;;;62.03;50.05;;;;;;;;;;5144186;27;20038;-73
2022/09/08 04:24:01;;;;;;;65.22;51.17;;;;;;;;;;5128806;27;20042;-74
2022/09/08 04:26:27;;;;;;;;;;;;;;;;;;5130621;27;20098;-72
2022/09/08 04:28:54;;;;;;;71.60;52.67;;;;;;;;;;5147488;27;20136;-73
2022/09/08 04:31:20;;;;;;;67.68;50.50;;;;;;;;;;5148518;27;20187;-72
2022/09/08 04:33:49;;;;;;;72.32;51.95;;;;;;;;;;5143996;27;20502;-73
2022/09/08 04:36:20;;;;;;;69.22;52.60;;;;;;;;;;5147504;27;20148;-73
2022/09/08 04:38:46;;;;;;;70.70;52.75;;;;;;;;;;5148189;27;20080;-73
2022/09/08 04:41:13;;;;;;;66.20;51.38;;;;;;;;;;5147785;27;20434;-73
2022/09/08 04:43:40;;;;;;;67.63;53.72;;;;;;;;;;5148069;27;20058;-72
2022/09/08 04:46:08;;;;;;;67.30;52.40;;;;;;;;;;5148260;27;20042;-74
2022/09/08 04:48:35;;;;;;;66.22;53.10;;;;;;;;;;5128492;27;20080;-74
2022/09/08 04:51:01;;;;;;;66.00;50.95;;;;;;;;;;5146615;27;20083;-73
2022/09/08 04:53:27;;;;;;;;;;;;;;;;;;5131279;27;20526;-72
2022/09/08 04:55:53;;;;;;;66.30;51.80;;;;;;;;;;5144526;27;19923;-72
2022/09/08 04:58:19;;;;;;;72.60;53.30;;;;;;;;;;5146588;27;20465;-71
2022/09/08 05:00:45;;;;;;;;;;;;;;;;;;5146409;27;20064;-72
2022/09/08 05:03:12;;;;;;;68.20;52.50;;;;;;;;;;5142690;27;19918;-71
2022/09/08 05:05:38;;;;;;;69.57;52.88;;;;;;;;;;5145442;27;20134;-74
2022/09/08 05:08:04;;;;;;;69.13;54.33;;;;;;;;;;5145738;27;20051;-74
2022/09/08 05:10:33;;;;;;;;;;;;;;;;;;5144974;27;20133;-75
2022/09/08 05:13:00;;;;;;;71.72;53.80;;;;;;;;;;5143551;27;20002;-74
2022/09/08 05:15:26;;;;;;;67.03;52.90;;;;;;;;;;5146700;27;20115;-74
2022/09/08 05:17:52;;;;;;;;;;;;;;;;;;5125713;27;20043;-71
2022/09/08 05:20:18;;;;;;;69.47;53.95;;;;;;;;;;5143163;27;19998;-74
2022/09/08 05:22:44;;;;;;;68.03;52.03;;;;;;;;;;5141692;27;20054;-73
2022/09/08 05:25:10;;;;;;;68.95;52.33;;;;;;;;;;5145911;27;20076;-74
2022/09/08 05:27:36;;;;;;;70.32;54.22;;;;;;;;;;5139871;27;20057;-71
2022/09/08 05:30:03;;;;;;;68.50;53.70;;;;;;;;;;5139030;27;20195;-74
2022/09/08 05:32:29;;;;;;;65.85;53.05;;;;;;;;;;5144770;27;20518;-74
2022/09/08 05:34:55;;;;;;;71.70;54.08;;;;;;;;;;5144533;27;20446;-72
2022/09/08 05:37:21;;;;;;;67.70;52.85;;;;;;;;;;5145619;27;20034;-74
2022/09/08 05:39:47;;;;;;;69.90;52.65;;;;;;;;;;5126466;27;20729;-72
2022/09/08 05:42:13;;;;;;;;;;;;;;;;;;5147435;27;20054;-73
2022/09/08 05:44:39;;;;;;;69.90;54.50;;;;;;;;;;5123692;27;19919;-74
2022/09/08 05:47:05;;;;;;;66.80;52.83;;;;;;;;;;5147327;27;20047;-74
2022/09/08 05:49:31;;;;;;;72.38;56.33;;;;;;;;;;5146675;27;20103;-73
2022/09/08 05:51:58;;;;;;;68.55;53.58;;;;;;;;;;5145654;27;20054;-73
2022/09/08 05:54:24;;;;;;;69.72;53.80;;;;;;;;;;5140526;27;20077;-72
2022/09/08 05:56:50;;;;;;;;;;;;;;;;;;5137960;27;20460;-72
2022/09/08 05:59:17;;;;;;;71.97;54.45;;;;;;;;;;5138823;27;20022;-73
2022/09/08 06:01:44;;;;;;;66.72;54.00;;;;;;;;;;5114858;27;20138;-73
2022/09/08 06:04:10;;;;;;;71.65;53.92;;;;;;;;;;5136798;27;20140;-72
2022/09/08 06:06:37;;;;;;;72.60;54.00;;;;;;;;;;5119305;27;20058;-74
2022/09/08 06:09:04;;;;;;;65.78;52.58;;;;;;;;;;5138396;27;20146;-73
2022/09/08 06:11:31;;;;;;;68.13;51.30;;;;;;;;;;5126049;27;20108;-72
2022/09/08 06:13:58;;;;;;;66.28;51.95;;;;;;;;;;5119311;27;20047;-74
2022/09/08 06:16:27;;;;;;;64.38;51.60;;;;;;;;;;5137336;27;20995;-75
2022/09/08 06:18:54;;;;;;;56.63;45.13;;;;;;;;;;5120547;27;20150;-73
2022/09/08 06:21:24;;;;;;;64.60;50.05;;;;;;;;;;5135283;27;20126;-73
2022/09/08 06:23:51;;;;;;;62.60;48.85;;;;;;;;;;5117226;27;20119;-73
2022/09/08 06:26:17;;;;;;;64.88;49.55;;;;;;;;;;5141171;27;20127;-70
2022/09/08 06:28:43;;;;;;;;;;;;;;;;;;5139756;27;20064;-72
2022/09/08 06:31:10;;;;;;;65.03;49.95;;;;;;;;;;5135616;27;19919;-73
2022/09/08 06:33:40;;;;;;;70.45;51.75;;;;;;;;;;5126488;27;20059;-72
2022/09/08 06:36:21;;;;;;;69.35;51.72;;;;;;;;;;5138887;27;20435;-72
2022/09/08 06:38:49;;;;;;;68.28;51.47;;;;;;;;;;5143748;27;20035;-73
2022/09/08 06:41:17;;;;;;;74.97;52.85;;;;;;;;;;5139699;27;20754;-70
2022/09/08 06:43:45;;;;;;;65.75;51.20;;;;;;;;;;5139472;27;20049;-72
2022/09/08 06:46:23;;;;;;;68.00;53.03;;;;;;;;;;5142513;27;20050;-74
2022/09/08 06:48:49;;;;;;;71.97;53.63;;;;;;;;;;5139315;27;20072;-74
2022/09/08 06:51:15;;;;;;;;;;;;;;;;;;5146451;27;20038;-75
2022/09/08 06:54:01;;;;;;;71.93;55.95;;;;;;;;;;5139457;27;20322;-74
2022/09/08 06:56:47;;;;;;;74.70;56.53;;;;;;;;;;5074320;27;20100;-75
2022/09/08 06:59:19;;;;;;;72.65;56.80;;;;;;;;;;5140148;27;20181;-74
2022/09/08 07:01:53;;;;;;;74.70;57.10;;;;;;;;;;5144617;27;20063;-80
2022/09/08 07:04:22;;;;;;;78.80;59.47;;;;;;;;;;5145865;27;20039;-74
2022/09/08 07:07:08;;;;;;;77.20;59.47;;;;;;;;;;5140434;27;20503;-70
2022/09/08 07:09:38;;;;;;;88.23;62.57;;;;;;;;;;5150941;27;20107;-67
2022/09/08 07:12:10;;;;;;;87.68;62.63;;;;;;;;;;5151332;27;20057;-66
2022/09/08 07:14:49;;;;;;;87.13;62.88;;;;;;;;;;5152279;27;20133;-65
2022/09/08 07:17:29;;;;;;;88.05;64.50;;;;;;;;;;5152243;27;20137;-65
2022/09/08 07:19:56;;;;;;;94.68;66.20;;;;;;;;;;5152408;27;20047;-65
2022/09/08 07:22:37;;;;;;;90.35;65.47;;;;;;;;;;5152271;27;20046;-64
2022/09/08 07:25:21;;;;;;;90.68;66.90;;;;;;;;;;5151834;27;20458;-64
2022/09/08 07:27:52;;;;;;;92.53;66.07;;;;;;;;;;5151707;27;20102;-68
2022/09/08 07:30:18;;;;;;;108.93;71.00;;;;;;;;;;5152428;27;20154;-64
2022/09/08 07:32:54;;;;;;;108.57;71.85;;;;;;;;;;5152442;27;20047;-65
2022/09/08 07:35:24;;;;;;;118.30;75.75;;;;;;;;;;5152601;27;20428;-65
2022/09/08 07:37:52;;;;;;;120.32;74.07;;;;;;;;;;5152222;27;20076;-65
2022/09/08 07:40:51;;;;;;;103.78;68.07;;;;;;;;;;5134305;27;20071;-66
2022/09/08 07:43:17;;;;;;;114.13;71.38;;;;;;;;;;5107177;27;20090;-64
2022/09/08 07:45:52;;;;;;;128.77;76.13;;;;;;;;;;5152590;27;20082;-64
2022/09/08 07:48:24;;;;;;;118.03;73.28;;;;;;;;;;5152189;27;20035;-66
2022/09/08 07:51:01;;;;;;;113.47;69.65;;;;;;;;;;5133641;27;20061;-71
2022/09/08 07:53:39;;;;;;;125.15;72.65;;;;;;;;;;5152311;27;20103;-66
2022/09/08 07:56:11;;;;;;;110.65;67.07;;;;;;;;;;5151863;27;20039;-67
2022/09/08 07:58:38;;;;;;;140.68;72.18;;;;;;;;;;5133549;27;20046;-71
2022/09/08 08:01:04;;;;;;;;;;;;;;;;;;5133584;27;20054;-69
2022/09/08 08:03:30;;;;;;;114.95;68.80;;;;;;;;;;5151859;27;19925;-71
2022/09/08 08:06:03;;;;;;;120.07;69.15;;;;;;;;;;5151248;27;20122;-67
2022/09/08 08:08:39;;;;;;;122.78;68.45;;;;;;;;;;5151559;27;20039;-71
2022/09/08 08:11:16;;;;;;;114.60;67.70;;;;;;;;;;5151223;27;20046;-69
2022/09/08 08:14:01;;;;;;;123.00;69.55;;;;;;;;;;5151769;27;20431;-69
2022/09/08 08:16:40;;;;;;;155.57;75.78;;;;;;;;;;5133073;27;20054;-71
2022/09/08 08:19:06;;;;;;;146.93;72.20;;;;;;;;;;5151193;27;20047;-71
2022/09/08 08:21:34;;;;;;;167.77;75.38;;;;;;;;;;5151298;27;20125;-70
2022/09/08 08:24:00;;;;;;;234.63;84.18;;;;;;;;;;5131982;27;20154;-71
2022/09/08 08:26:26;;;;;;;169.15;76.55;;;;;;;;;;5151651;27;20059;-71
2022/09/08 08:29:00;;;;;;;200.93;79.80;;;;;;;;;;5151053;27;20510;-69
2022/09/08 08:31:39;;;;;;;200.98;79.30;;;;;;;;;;5132404;27;20062;-70
2022/09/08 08:34:18;;;;;;;180.15;77.57;;;;;;;;;;5150542;27;20083;-71
2022/09/08 08:36:46;;;;;;;141.45;71.93;;;;;;;;;;5151050;27;20046;-71
2022/09/08 08:39:18;;;;;;;129.50;66.10;;;;;;;;;;5131732;27;20050;-71
2022/09/08 08:41:47;;;;;;;149.98;69.38;;;;;;;;;;5150789;27;20054;-71
2022/09/08 08:44:30;;;;;;;276.58;88.13;;;;;;;;;;5150512;27;20122;-70
2022/09/08 08:47:14;;;;;;;153.35;70.13;;;;;;;;;;5131805;27;20078;-70
2022/09/08 08:49:49;;;;;;;120.93;63.45;;;;;;;;;;5150176;27;20088;-70
2022/09/08 08:52:35;;;;;;;185.48;76.18;;;;;;;;;;5149645;27;20069;-69
2022/09/08 08:55:22;;;;;;;133.75;67.68;;;;;;;;;;5147825;27;20186;-69
2022/09/08 08:58:08;;;;;;;283.17;87.40;;;;;;;;;;5149577;27;20078;-68
2022/09/08 09:00:44;;;;;;;187.57;78.13;;;;;;;;;;5149639;27;20062;-68
2022/09/08 09:03:29;;;;;;;137.82;70.90;;;;;;;;;;5149500;27;20039;-67
2022/09/08 09:06:00;;;;;;;124.68;67.78;;;;;;;;;;5130823;27;20155;-67
2022/09/08 09:08:45;;;;;;;198.75;81.75;;;;;;;;;;5149419;27;20039;-67
2022/09/08 09:11:24;;;;;;;184.07;77.55;;;;;;;;;;5149263;27;20082;-67
2022/09/08 09:14:09;;;;;;;195.35;77.40;;;;;;;;;;5149719;27;20054;-67
2022/09/08 09:16:35;;;;;;;100.68;59.97;;;;;;;;;;5130470;27;20343;-67
2022/09/08 09:19:13;;;;;;;185.73;78.30;;;;;;;;;;5149259;27;20042;-71
2022/09/08 09:21:39;;;;;;;131.35;67.10;;;;;;;;;;5149550;27;20129;-67
2022/09/08 09:24:19;;;;;;;99.13;59.50;;;;;;;;;;5149179;27;20143;-67
2022/09/08 09:26:49;;;;;;;105.40;59.45;;;;;;;;;;5148971;27;20055;-67
2022/09/08 09:29:19;;;;;;;87.28;53.38;;;;;;;;;;5148949;27;20062;-67
2022/09/08 09:32:04;;;;;;;80.50;52.03;;;;;;;;;;5149029;27;20509;-67
2022/09/08 09:35:06;;;;;;;150.95;67.15;;;;;;;;;;5113321;27;20084;-67
2022/09/08 09:37:33;;;;;;;98.57;54.55;;;;;;;;;;5064686;28;20044;-67
2022/09/08 09:40:02;;;;;;;66.88;46.45;;;;;;;;;;5132972;27;20055;-67
2022/09/08 09:42:28;;;;;;;67.90;45.70;;;;;;;;;;5129856;27;20142;-67
2022/09/08 09:45:13;;;;;;;74.47;46.88;;;;;;;;;;5149113;27;20466;-67
2022/09/08 09:47:43;;;;;;;69.43;45.17;;;;;;;;;;5149211;27;20042;-67
2022/09/08 09:50:15;;;;;;;65.82;42.00;;;;;;;;;;5148815;27;20110;-69
2022/09/08 09:52:59;;;;;;;72.53;41.83;;;;;;;;;;5146442;27;20122;-67
2022/09/08 09:55:34;;;;;;;77.60;42.83;;;;;;;;;;5130287;27;20152;-67
2022/09/08 09:58:26;;;;;;;69.05;40.42;;;;;;;;;;5148895;27;20038;-67
2022/09/08 10:00:55;;;;;;;76.43;43.60;;;;;;;;;;5149638;27;20050;-68
2022/09/08 10:03:32;;;;;;;82.10;43.30;;;;;;;;;;5148695;27;20205;-68
2022/09/08 10:06:04;;;;;;;132.90;51.08;;;;;;;;;;5148967;27;20395;-67
2022/09/08 10:08:42;;;;;;;85.10;42.15;;;;;;;;;;5148685;27;20066;-67
2022/09/08 10:11:20;;;;;;;43.72;29.88;;;;;;;;;;5148696;27;20139;-67
2022/09/08 10:13:58;;;;;;;91.85;42.60;;;;;;;;;;5149360;27;20486;-67
2022/09/08 10:16:30;;;;;;;46.70;30.92;;;;;;;;;;5148658;27;20087;-67
2022/09/08 10:19:03;;;;;;;58.80;35.22;;;;;;;;;;5148743;27;20057;-67
2022/09/08 10:21:39;;;;;;;67.88;37.80;;;;;;;;;;5148580;27;20122;-66
2022/09/08 10:24:10;;;;;;;75.28;38.97;;;;;;;;;;5148918;27;20038;-67
2022/09/08 10:26:55;;;;;;;49.58;31.50;;;;;;;;;;5149361;27;20047;-67
2022/09/08 10:29:35;;;;;;;40.05;27.92;;;;;;;;;;5152592;27;20062;-67
2022/09/08 10:32:22;;;;;;;40.38;29.00;;;;;;;;;;5153109;27;20047;-66
2022/09/08 10:35:03;;;;;;;50.67;29.77;;;;;;;;;;5093070;27;20126;-67
2022/09/08 10:37:48;;;;;;;55.78;32.45;;;;;;;;;;5153169;27;20129;-67
2022/09/08 10:40:19;;;;;;;47.80;31.85;;;;;;;;;;5134505;27;20098;-68
2022/09/08 10:42:50;;;;;;;47.70;29.02;;;;;;;;;;5153742;27;20474;-67
2022/09/08 10:45:23;;;;;;;34.88;22.40;;;;;;;;;;5134403;27;20054;-68
2022/09/08 10:48:08;;;;;;;33.13;19.83;;;;;;;;;;5153744;27;20062;-68
2022/09/08 10:50:37;;;;;;;24.00;15.18;;;;;;;;;;5152775;27;20105;-68
2022/09/08 10:53:12;;;;;;;33.78;18.00;;;;;;;;;;5153447;27;20121;-68
2022/09/08 10:55:49;;;;;;;24.92;15.68;;;;;;;;;;5153475;27;20047;-69
2022/09/08 10:58:54;;;;;;;23.05;13.40;;;;;;;;;;5152983;27;20095;-69
2022/09/08 11:01:20;;;;;;;18.55;11.05;;;;;;;;;;5067913;28;20432;-68
2022/09/08 11:03:55;;;;;;;20.17;13.20;;;;;;;;;;5067587;28;20048;-68
2022/09/08 11:06:39;;;;;;;18.63;11.60;;;;;;;;;;5112813;27;20111;-68
2022/09/08 11:09:34;;;;;;;23.55;13.98;;;;;;;;;;5152666;27;20043;-68
2022/09/08 11:12:02;;;;;;;19.15;12.50;;;;;;;;;;5134305;27;20051;-70
2022/09/08 11:14:38;;;;;;;19.50;12.82;;;;;;;;;;5152361;27;20335;-69
2022/09/08 11:17:23;;;;;;;41.95;20.58;;;;;;;;;;5134131;27;20058;-70
2022/09/08 11:19:51;;;;;;;31.52;17.77;;;;;;;;;;5152776;27;20046;-70
2022/09/08 11:22:35;;;;;;;33.25;18.27;;;;;;;;;;5152601;27;20046;-69
2022/09/08 11:25:01;;;;;;;32.72;18.05;;;;;;;;;;5152270;27;20043;-69
2022/09/08 11:27:27;;;;;;;26.30;14.18;;;;;;;;;;5151564;27;20051;-70
2022/09/08 11:30:00;;;;;;;24.85;13.65;;;;;;;;;;5152390;27;20141;-70
2022/09/08 11:32:33;;;;;;;23.40;12.52;;;;;;;;;;5132658;27;20050;-70
2022/09/08 11:35:02;;;;;;;22.60;12.30;;;;;;;;;;5152492;27;20115;-69
2022/09/08 11:37:28;;;;;;;19.95;9.82;;;;;;;;;;5133360;27;20058;-70
2022/09/08 11:40:05;;;;;;;19.77;11.05;;;;;;;;;;5151564;27;20110;-69
2022/09/08 11:42:40;;;;;;;20.45;10.02;;;;;;;;;;5151849;27;20178;-69
2022/09/08 11:45:25;;;;;;;36.47;12.93;;;;;;;;;;5152284;27;20054;-69
2022/09/08 11:48:23;;;;;;;17.17;8.43;;;;;;;;;;5151801;27;20523;-69
2022/09/08 11:51:02;;;;;;;17.17;8.73;;;;;;;;;;5110307;27;20057;-69
2022/09/08 11:53:40;;;;;;;14.00;6.95;;;;;;;;;;5151509;27;20083;-69
2022/09/08 11:56:18;;;;;;;14.35;7.47;;;;;;;;;;5151487;27;20053;-69
2022/09/08 11:58:57;;;;;;;13.48;7.43;;;;;;;;;;5151472;27;20449;-68
2022/09/08 12:01:23;;;;;;;15.32;7.47;;;;;;;;;;5151564;27;20100;-70
2022/09/08 12:04:08;;;;;;;15.77;7.63;;;;;;;;;;5151944;27;20401;-69
2022/09/08 12:06:53;;;;;;;15.75;7.07;;;;;;;;;;5151443;27;20055;-70
2022/09/08 12:09:19;;;;;;;16.35;8.45;;;;;;;;;;5151658;27;20047;-70
2022/09/08 12:11:45;;;;;;;25.73;10.40;;;;;;;;;;5132361;27;20118;-71
2022/09/08 12:14:21;;;;;;;14.93;7.32;;;;;;;;;;5151890;27;20150;-70
2022/09/08 12:16:58;;;;;;;16.13;6.75;;;;;;;;;;5151453;27;20050;-71
2022/09/08 12:19:31;;;;;;;18.90;8.48;;;;;;;;;;5151848;27;20085;-71
2022/09/08 12:22:00;;;;;;;12.68;6.63;;;;;;;;;;5151176;27;20466;-71
2022/09/08 12:24:38;;;;;;;17.38;7.95;;;;;;;;;;5151128;27;20046;-76
2022/09/08 12:27:21;;;;;;;17.65;8.27;;;;;;;;;;5151123;27;20466;-71
2022/09/08 12:30:05;;;;;;;21.15;10.75;;;;;;;;;;5151144;27;20102;-71
2022/09/08 12:32:51;;;;;;;24.20;11.32;;;;;;;;;;5132140;27;20050;-71
2022/09/08 12:35:35;;;;;;;19.70;7.75;;;;;;;;;;5151388;27;20454;-70
2022/09/08 12:38:20;;;;;;;15.70;8.15;;;;;;;;;;5151099;27;20125;-69
2022/09/08 12:40:58;;;;;;;16.77;8.93;;;;;;;;;;5149436;27;20069;-70
2022/09/08 12:43:25;;;;;;;20.50;9.77;;;;;;;;;;5132070;27;20058;-70
2022/09/08 12:46:12;;;;;;;22.13;11.18;;;;;;;;;;5150493;27;20117;-69
2022/09/08 12:48:57;;;;;;;21.13;8.33;;;;;;;;;;5149795;27;20052;-69
2022/09/08 12:51:25;;;;;;;16.67;7.93;;;;;;;;;;5149965;27;20369;-69
2022/09/08 12:54:09;;;;;;;14.65;6.82;;;;;;;;;;5150306;27;20064;-69
2022/09/08 12:56:44;;;;;;;16.17;6.78;;;;;;;;;;5150518;27;20093;-69
2022/09/08 12:59:36;;;;;;;17.60;8.43;;;;;;;;;;5150751;27;20496;-69
2022/09/08 13:02:14;;;;;;;15.95;9.02;;;;;;;;;;5129847;27;20054;-68
2022/09/08 13:04:44;;;;;;;17.63;8.80;;;;;;;;;;5131672;27;20039;-68
2022/09/08 13:07:39;;;;;;;16.00;7.78;;;;;;;;;;5131272;27;20413;-67
2022/09/08 13:10:18;;;;;;;20.15;10.77;;;;;;;;;;5111931;27;20204;-67
2022/09/08 13:12:53;;;;;;;14.82;7.18;;;;;;;;;;5150308;27;20157;-67
2022/09/08 13:15:22;;;;;;;19.08;9.18;;;;;;;;;;5132073;27;20058;-67
2022/09/08 13:18:10;;;;;;;16.48;8.18;;;;;;;;;;5131648;27;20078;-67
2022/09/08 13:20:43;;;;;;;19.73;8.95;;;;;;;;;;5150232;27;20111;-67
2022/09/08 13:23:27;;;;;;;15.30;8.38;;;;;;;;;;5150588;27;20160;-67
2022/09/08 13:25:54;;;;;;;25.25;11.63;;;;;;;;;;5149959;27;20165;-66
2022/09/08 13:28:38;;;;;;;18.75;10.55;;;;;;;;;;5150395;27;20050;-66
2022/09/08 13:31:05;;;;;;;21.75;11.57;;;;;;;;;;5150394;27;20050;-66
2022/09/08 13:33:41;;;;;;;15.43;8.95;;;;;;;;;;5149856;27;20094;-66
2022/09/08 13:36:25;;;;;;;18.05;9.93;;;;;;;;;;5149577;27;20042;-66
2022/09/08 13:39:00;;;;;;;17.92;9.98;;;;;;;;;;5149485;27;20087;-66
2022/09/08 13:41:45;;;;;;;19.30;10.15;;;;;;;;;;5148827;27;20059;-66
2022/09/08 13:44:20;;;;;;;27.65;13.45;;;;;;;;;;5150004;27;20084;-66
2022/09/08 13:46:58;;;;;;;30.80;14.75;;;;;;;;;;5149245;27;20153;-66
2022/09/08 13:49:44;;;;;;;31.05;14.27;;;;;;;;;;5130551;27;20150;-66
2022/09/08 13:52:29;;;;;;;25.25;13.25;;;;;;;;;;5130673;27;20122;-66
2022/09/08 13:54:58;;;;;;;30.67;15.38;;;;;;;;;;5148775;27;20065;-66
2022/09/08 13:57:34;;;;;;;23.25;14.25;;;;;;;;;;5149118;27;20050;-66
2022/09/08 14:00:13;;;;;;;22.50;12.50;;;;;;;;;;5148738;27;20122;-66
2022/09/08 14:02:54;;;;;;;26.45;13.80;;;;;;;;;;5132133;27;20141;-66
2022/09/08 14:05:33;;;;;;;22.13;13.75;;;;;;;;;;5134434;27;20102;-65
2022/09/08 14:08:11;;;;;;;23.15;12.68;;;;;;;;;;5152800;27;20335;-65
2022/09/08 14:10:40;;;;;;;39.00;17.70;;;;;;;;;;5153397;27;20070;-65
2022/09/08 14:13:15;;;;;;;24.08;15.23;;;;;;;;;;5152974;27;20047;-65
2022/09/08 14:16:02;;;;;;;28.15;14.82;;;;;;;;;;5151084;27;20130;-64
2022/09/08 14:18:28;;;;;;;31.48;18.38;;;;;;;;;;5152751;27;20122;-65
2022/09/08 14:20:54;;;;;;;;;;;;;;;;;;5152991;27;20115;-64
2022/09/08 14:23:26;;;;;;;44.67;21.70;;;;;;;;;;5152956;27;20374;-65
2022/09/08 14:26:12;;;;;;;26.17;15.35;;;;;;;;;;5152833;27;20113;-65
2022/09/08 14:28:45;;;;;;;29.90;18.15;;;;;;;;;;5152509;27;20047;-65
2022/09/08 14:31:20;;;;;;;32.20;18.33;;;;;;;;;;5152611;27;20055;-64
2022/09/08 14:33:54;;;;;;;31.50;19.17;;;;;;;;;;5152458;27;20119;-65
2022/09/08 14:36:53;;;;;;;46.60;22.63;;;;;;;;;;5133741;27;20404;-65
2022/09/08 14:39:25;;;;;;;29.48;17.90;;;;;;;;;;5106395;27;20055;-65
2022/09/08 14:41:57;;;;;;;43.03;21.45;;;;;;;;;;5152165;27;20379;-65
2022/09/08 14:44:34;;;;;;;34.55;19.33;;;;;;;;;;5152331;27;20047;-65
2022/09/08 14:47:03;;;;;;;43.97;22.05;;;;;;;;;;5151975;27;20507;-65
2022/09/08 14:49:29;;;;;;;32.55;19.38;;;;;;;;;;5152378;27;20061;-65
2022/09/08 14:52:11;;;;;;;26.52;16.70;;;;;;;;;;5152064;27;20118;-65
2022/09/08 14:54:37;;;;;;;26.02;18.00;;;;;;;;;;5151880;27;20055;-65
2022/09/08 14:57:12;;;;;;;35.03;19.77;;;;;;;;;;5151931;27;20034;-65
2022/09/08 15:00:00;;;;;;;27.10;17.02;;;;;;;;;;5152311;27;20109;-65